Bila Tserkva, Ukraine
Current Conditions -  °F | °C
As of 12:30 PM on Wednesday 22 Oct 2014 (Local Time) from UKKK Reporting Station
Broken Clouds Broken Clouds  
Wind Chill: 54°   Ceiling: 8400
Heat Index: 54°   Visibility: 6mi
Dew Point: 48°   Wind: 7mph
Humidity: 82%   Direction: 70°ENE
Pressure: 29.77"   Gusts: NA
Location:  49.78°N, 30.12°E
Report Text: UKKK 220930Z 07003MPS 9000 FEW016 BKN084 12/09 Q1008 26CLRD70 NOSIG
Loading
Personal Weather Stations






























Interactive Weather Map
Tropical Storm Tracking
New forecast layout! Learn more

10-Day Weather Forecast

Advertisements
Track Severe Weather on mobile